sensor_id;sensor_type;location;lat;lon;timestamp;temperature;humidity
1405;DHT22;697;51.114;6.542;2022-12-05T00:01:54;5.70;97.00
1405;DHT22;697;51.114;6.542;2022-12-05T00:04:21;5.70;97.00
1405;DHT22;697;51.114;6.542;2022-12-05T00:06:48;5.70;97.10
1405;DHT22;697;51.114;6.542;2022-12-05T00:09:14;5.70;97.10
1405;DHT22;697;51.114;6.542;2022-12-05T00:11:45;5.70;97.10
1405;DHT22;697;51.114;6.542;2022-12-05T00:14:12;5.70;97.10
1405;DHT22;697;51.114;6.542;2022-12-05T00:16:41;5.70;97.10
1405;DHT22;697;51.114;6.542;2022-12-05T00:19:12;5.70;97.10
1405;DHT22;697;51.114;6.542;2022-12-05T00:21:39;5.70;97.10
1405;DHT22;697;51.114;6.542;2022-12-05T00:24:07;5.70;97.20
1405;DHT22;697;51.114;6.542;2022-12-05T00:26:35;5.70;97.20
1405;DHT22;697;51.114;6.542;2022-12-05T00:29:02;5.70;97.30
1405;DHT22;697;51.114;6.542;2022-12-05T00:31:29;5.70;97.30
1405;DHT22;697;51.114;6.542;2022-12-05T00:33:59;5.70;97.40
1405;DHT22;697;51.114;6.542;2022-12-05T00:36:32;5.70;97.40
1405;DHT22;697;51.114;6.542;2022-12-05T00:39:02;5.70;97.40
1405;DHT22;697;51.114;6.542;2022-12-05T00:41:29;5.70;97.40
1405;DHT22;697;51.114;6.542;2022-12-05T00:43:58;5.70;97.30
1405;DHT22;697;51.114;6.542;2022-12-05T00:46:26;5.70;97.40
1405;DHT22;697;51.114;6.542;2022-12-05T00:48:54;5.70;97.30
1405;DHT22;697;51.114;6.542;2022-12-05T00:51:23;5.70;97.40
1405;DHT22;697;51.114;6.542;2022-12-05T00:53:53;5.70;97.40
1405;DHT22;697;51.114;6.542;2022-12-05T00:56:21;5.70;97.40
1405;DHT22;697;51.114;6.542;2022-12-05T00:58:49;5.70;97.30
1405;DHT22;697;51.114;6.542;2022-12-05T01:01:19;5.70;97.30
1405;DHT22;697;51.114;6.542;2022-12-05T01:03:46;5.70;97.30
1405;DHT22;697;51.114;6.542;2022-12-05T01:06:14;5.70;97.30
1405;DHT22;697;51.114;6.542;2022-12-05T01:08:41;5.70;97.30
1405;DHT22;697;51.114;6.542;2022-12-05T01:11:11;5.70;97.30
1405;DHT22;697;51.114;6.542;2022-12-05T01:13:39;5.70;97.40
1405;DHT22;697;51.114;6.542;2022-12-05T01:16:12;5.70;97.40
1405;DHT22;697;51.114;6.542;2022-12-05T01:18:39;5.70;97.40
1405;DHT22;697;51.114;6.542;2022-12-05T01:21:06;5.70;97.30
1405;DHT22;697;51.114;6.542;2022-12-05T01:23:33;5.70;97.30
1405;DHT22;697;51.114;6.542;2022-12-05T01:26:04;5.70;97.30
1405;DHT22;697;51.114;6.542;2022-12-05T01:28:33;5.70;97.30
1405;DHT22;697;51.114;6.542;2022-12-05T01:31:04;5.70;97.30
1405;DHT22;697;51.114;6.542;2022-12-05T01:33:31;5.70;97.30
1405;DHT22;697;51.114;6.542;2022-12-05T01:35:58;5.70;97.40
1405;DHT22;697;51.114;6.542;2022-12-05T01:38:25;5.70;97.40
1405;DHT22;697;51.114;6.542;2022-12-05T01:40:59;5.70;97.40
1405;DHT22;697;51.114;6.542;2022-12-05T01:43:26;5.70;97.40
1405;DHT22;697;51.114;6.542;2022-12-05T01:45:54;5.70;97.40
1405;DHT22;697;51.114;6.542;2022-12-05T01:48:23;5.70;97.40
1405;DHT22;697;51.114;6.542;2022-12-05T01:50:51;5.70;97.50
1405;DHT22;697;51.114;6.542;2022-12-05T01:53:20;5.70;97.50
1405;DHT22;697;51.114;6.542;2022-12-05T01:55:48;5.70;97.40
1405;DHT22;697;51.114;6.542;2022-12-05T01:58:15;5.70;97.40
1405;DHT22;697;51.114;6.542;2022-12-05T02:00:43;5.80;97.40
1405;DHT22;697;51.114;6.542;2022-12-05T02:03:17;5.80;97.40
1405;DHT22;697;51.114;6.542;2022-12-05T02:05:47;5.80;97.40
1405;DHT22;697;51.114;6.542;2022-12-05T02:08:15;5.80;97.40
1405;DHT22;697;51.114;6.542;2022-12-05T02:10:45;5.80;97.30
1405;DHT22;697;51.114;6.542;2022-12-05T02:13:27;5.80;97.30
1405;DHT22;697;51.114;6.542;2022-12-05T02:16:01;5.80;97.30
1405;DHT22;697;51.114;6.542;2022-12-05T02:18:43;5.80;97.30
1405;DHT22;697;51.114;6.542;2022-12-05T02:21:39;5.80;97.30
1405;DHT22;697;51.114;6.542;2022-12-05T02:24:33;5.80;97.30
1405;DHT22;697;51.114;6.542;2022-12-05T02:27:20;5.80;97.30
1405;DHT22;697;51.114;6.542;2022-12-05T02:30:05;5.80;97.40
1405;DHT22;697;51.114;6.542;2022-12-05T02:35:36;5.80;97.40
1405;DHT22;697;51.114;6.542;2022-12-05T02:38:14;5.80;97.50
1405;DHT22;697;51.114;6.542;2022-12-05T02:40:51;5.80;97.50
1405;DHT22;697;51.114;6.542;2022-12-05T02:43:29;5.80;97.50
1405;DHT22;697;51.114;6.542;2022-12-05T02:46:00;5.80;97.60
1405;DHT22;697;51.114;6.542;2022-12-05T02:48:31;5.80;97.60
1405;DHT22;697;51.114;6.542;2022-12-05T02:51:00;5.70;97.60
1405;DHT22;697;51.114;6.542;2022-12-05T02:53:29;5.80;97.70
1405;DHT22;697;51.114;6.542;2022-12-05T02:55:56;5.80;97.70
1405;DHT22;697;51.114;6.542;2022-12-05T02:58:26;5.80;97.80
1405;DHT22;697;51.114;6.542;2022-12-05T03:00:58;5.80;97.80
1405;DHT22;697;51.114;6.542;2022-12-05T03:03:25;5.80;97.90
1405;DHT22;697;51.114;6.542;2022-12-05T03:05:58;5.80;97.90
1405;DHT22;697;51.114;6.542;2022-12-05T03:08:29;5.80;97.90
1405;DHT22;697;51.114;6.542;2022-12-05T03:10:57;5.80;97.90
1405;DHT22;697;51.114;6.542;2022-12-05T03:13:27;5.70;97.90
1405;DHT22;697;51.114;6.542;2022-12-05T03:15:57;5.70;97.90
1405;DHT22;697;51.114;6.542;2022-12-05T03:18:29;5.80;98.00
1405;DHT22;697;51.114;6.542;2022-12-05T03:21:01;5.80;98.00
1405;DHT22;697;51.114;6.542;2022-12-05T03:23:31;5.80;97.90
1405;DHT22;697;51.114;6.542;2022-12-05T03:26:03;5.80;98.00
1405;DHT22;697;51.114;6.542;2022-12-05T03:28:43;5.80;98.00
1405;DHT22;697;51.114;6.542;2022-12-05T03:31:20;5.80;98.00
1405;DHT22;697;51.114;6.542;2022-12-05T03:33:50;5.80;98.10
1405;DHT22;697;51.114;6.542;2022-12-05T03:36:23;5.80;98.10
1405;DHT22;697;51.114;6.542;2022-12-05T03:38:56;5.80;98.10
1405;DHT22;697;51.114;6.542;2022-12-05T03:41:32;5.80;98.20
1405;DHT22;697;51.114;6.542;2022-12-05T03:44:05;5.80;98.20
1405;DHT22;697;51.114;6.542;2022-12-05T03:46:37;5.80;98.20
1405;DHT22;697;51.114;6.542;2022-12-05T03:49:11;5.80;98.10
1405;DHT22;697;51.114;6.542;2022-12-05T03:51:42;5.80;98.10
1405;DHT22;697;51.114;6.542;2022-12-05T03:54:17;5.80;98.10
1405;DHT22;697;51.114;6.542;2022-12-05T03:56:49;5.70;98.10
1405;DHT22;697;51.114;6.542;2022-12-05T03:59:23;5.80;98.20
1405;DHT22;697;51.114;6.542;2022-12-05T04:01:53;5.80;98.10
1405;DHT22;697;51.114;6.542;2022-12-05T04:04:26;5.70;98.10
1405;DHT22;697;51.114;6.542;2022-12-05T04:06:55;5.70;98.00
1405;DHT22;697;51.114;6.542;2022-12-05T04:09:25;5.80;98.10
1405;DHT22;697;51.114;6.542;2022-12-05T04:11:58;5.80;98.00
1405;DHT22;697;51.114;6.542;2022-12-05T04:14:30;5.70;98.30
1405;DHT22;697;51.114;6.542;2022-12-05T04:17:00;5.80;98.00
1405;DHT22;697;51.114;6.542;2022-12-05T04:19:32;5.70;97.90
1405;DHT22;697;51.114;6.542;2022-12-05T04:22:15;5.70;97.90
1405;DHT22;697;51.114;6.542;2022-12-05T04:24:42;5.70;97.90
1405;DHT22;697;51.114;6.542;2022-12-05T04:27:30;5.70;97.90
1405;DHT22;697;51.114;6.542;2022-12-05T04:30:03;5.70;97.90
1405;DHT22;697;51.114;6.542;2022-12-05T04:32:38;5.70;97.90
1405;DHT22;697;51.114;6.542;2022-12-05T04:35:14;5.60;97.90
1405;DHT22;697;51.114;6.542;2022-12-05T04:37:46;5.70;97.80
1405;DHT22;697;51.114;6.542;2022-12-05T04:40:19;5.70;97.80
1405;DHT22;697;51.114;6.542;2022-12-05T04:42:48;5.60;97.70
1405;DHT22;697;51.114;6.542;2022-12-05T04:45:18;5.60;97.70
1405;DHT22;697;51.114;6.542;2022-12-05T04:47:49;5.60;97.60
1405;DHT22;697;51.114;6.542;2022-12-05T04:50:18;5.60;97.50
1405;DHT22;697;51.114;6.542;2022-12-05T04:52:49;5.60;97.50
1405;DHT22;697;51.114;6.542;2022-12-05T04:55:23;5.60;97.40
1405;DHT22;697;51.114;6.542;2022-12-05T04:57:58;5.60;97.30
1405;DHT22;697;51.114;6.542;2022-12-05T05:00:28;5.60;97.30
1405;DHT22;697;51.114;6.542;2022-12-05T05:02:59;5.60;97.20
1405;DHT22;697;51.114;6.542;2022-12-05T05:05:35;5.50;97.10
1405;DHT22;697;51.114;6.542;2022-12-05T05:08:03;5.50;97.00
1405;DHT22;697;51.114;6.542;2022-12-05T05:10:32;5.50;96.90
1405;DHT22;697;51.114;6.542;2022-12-05T05:13:01;5.50;96.90
1405;DHT22;697;51.114;6.542;2022-12-05T05:15:28;5.50;96.90
1405;DHT22;697;51.114;6.542;2022-12-05T05:17:55;5.50;96.90
1405;DHT22;697;51.114;6.542;2022-12-05T05:20:21;5.50;96.90
1405;DHT22;697;51.114;6.542;2022-12-05T05:22:56;5.50;96.80
1405;DHT22;697;51.114;6.542;2022-12-05T05:25:24;5.40;96.70
1405;DHT22;697;51.114;6.542;2022-12-05T05:27:52;5.40;96.70
1405;DHT22;697;51.114;6.542;2022-12-05T05:30:20;5.40;96.60
1405;DHT22;697;51.114;6.542;2022-12-05T05:32:47;5.40;96.60
1405;DHT22;697;51.114;6.542;2022-12-05T05:35:15;5.40;96.50
1405;DHT22;697;51.114;6.542;2022-12-05T05:37:41;5.40;96.80
1405;DHT22;697;51.114;6.542;2022-12-05T05:40:12;5.40;96.50
1405;DHT22;697;51.114;6.542;2022-12-05T05:42:42;5.30;96.40
1405;DHT22;697;51.114;6.542;2022-12-05T05:45:10;5.40;96.40
1405;DHT22;697;51.114;6.542;2022-12-05T05:47:37;5.30;96.30
1405;DHT22;697;51.114;6.542;2022-12-05T05:50:07;5.30;96.20
1405;DHT22;697;51.114;6.542;2022-12-05T05:52:35;5.30;96.20
1405;DHT22;697;51.114;6.542;2022-12-05T05:55:03;5.20;96.20
1405;DHT22;697;51.114;6.542;2022-12-05T05:57:31;5.20;96.20
1405;DHT22;697;51.114;6.542;2022-12-05T05:59:58;5.20;96.20
1405;DHT22;697;51.114;6.542;2022-12-05T06:02:25;5.20;96.20
1405;DHT22;697;51.114;6.542;2022-12-05T06:04:51;5.20;96.20
1405;DHT22;697;51.114;6.542;2022-12-05T06:07:18;5.20;96.20
1405;DHT22;697;51.114;6.542;2022-12-05T06:09:45;5.10;96.10
1405;DHT22;697;51.114;6.542;2022-12-05T06:12:17;5.10;96.10
1405;DHT22;697;51.114;6.542;2022-12-05T06:14:48;5.10;96.10
1405;DHT22;697;51.114;6.542;2022-12-05T06:17:15;5.10;96.10
1405;DHT22;697;51.114;6.542;2022-12-05T06:19:42;5.10;96.10
1405;DHT22;697;51.114;6.542;2022-12-05T06:22:08;5.10;96.10
1405;DHT22;697;51.114;6.542;2022-12-05T06:24:35;5.10;96.20
1405;DHT22;697;51.114;6.542;2022-12-05T06:27:02;5.10;96.20
1405;DHT22;697;51.114;6.542;2022-12-05T06:29:29;5.00;96.20
1405;DHT22;697;51.114;6.542;2022-12-05T06:31:57;5.00;96.30
1405;DHT22;697;51.114;6.542;2022-12-05T06:34:23;5.00;96.30
1405;DHT22;697;51.114;6.542;2022-12-05T06:36:50;4.90;96.40
1405;DHT22;697;51.114;6.542;2022-12-05T06:39:17;4.90;96.40
1405;DHT22;697;51.114;6.542;2022-12-05T06:41:43;4.90;96.50
1405;DHT22;697;51.114;6.542;2022-12-05T06:44:10;4.90;96.60
1405;DHT22;697;51.114;6.542;2022-12-05T06:46:37;4.90;96.60
1405;DHT22;697;51.114;6.542;2022-12-05T06:49:05;4.80;96.60
1405;DHT22;697;51.114;6.542;2022-12-05T06:51:31;4.80;97.00
1405;DHT22;697;51.114;6.542;2022-12-05T06:53:58;4.80;96.70
1405;DHT22;697;51.114;6.542;2022-12-05T06:56:25;4.80;96.70
1405;DHT22;697;51.114;6.542;2022-12-05T06:58:52;4.80;96.70
1405;DHT22;697;51.114;6.542;2022-12-05T07:01:21;4.80;96.80
1405;DHT22;697;51.114;6.542;2022-12-05T07:04:11;4.80;96.80
1405;DHT22;697;51.114;6.542;2022-12-05T07:06:39;4.80;96.80
1405;DHT22;697;51.114;6.542;2022-12-05T07:09:07;4.80;96.80
1405;DHT22;697;51.114;6.542;2022-12-05T07:11:34;4.70;96.80
1405;DHT22;697;51.114;6.542;2022-12-05T07:14:01;4.70;96.80
1405;DHT22;697;51.114;6.542;2022-12-05T07:16:28;4.70;96.80
1405;DHT22;697;51.114;6.542;2022-12-05T07:18:54;4.70;96.80
1405;DHT22;697;51.114;6.542;2022-12-05T07:21:23;4.70;96.80
1405;DHT22;697;51.114;6.542;2022-12-05T07:23:50;4.70;96.80
1405;DHT22;697;51.114;6.542;2022-12-05T07:26:19;4.70;96.80
1405;DHT22;697;51.114;6.542;2022-12-05T07:28:46;4.70;96.80
1405;DHT22;697;51.114;6.542;2022-12-05T07:31:15;4.70;96.80
1405;DHT22;697;51.114;6.542;2022-12-05T07:33:43;4.70;96.80
1405;DHT22;697;51.114;6.542;2022-12-05T07:36:12;4.70;96.80
1405;DHT22;697;51.114;6.542;2022-12-05T07:38:41;4.60;96.80
1405;DHT22;697;51.114;6.542;2022-12-05T07:41:10;4.60;96.90
1405;DHT22;697;51.114;6.542;2022-12-05T07:43:38;4.60;96.90
1405;DHT22;697;51.114;6.542;2022-12-05T07:46:06;4.60;96.90
1405;DHT22;697;51.114;6.542;2022-12-05T07:48:33;4.60;97.00
1405;DHT22;697;51.114;6.542;2022-12-05T07:51:00;4.60;97.00
1405;DHT22;697;51.114;6.542;2022-12-05T07:53:31;4.60;97.00
1405;DHT22;697;51.114;6.542;2022-12-05T07:55:59;4.50;97.00
1405;DHT22;697;51.114;6.542;2022-12-05T07:58:27;4.50;97.00
1405;DHT22;697;51.114;6.542;2022-12-05T08:00:54;4.50;97.10
1405;DHT22;697;51.114;6.542;2022-12-05T08:03:21;4.50;97.10
1405;DHT22;697;51.114;6.542;2022-12-05T08:05:48;4.50;97.20
1405;DHT22;697;51.114;6.542;2022-12-05T08:08:14;4.50;97.20
1405;DHT22;697;51.114;6.542;2022-12-05T08:10:41;4.50;97.20
1405;DHT22;697;51.114;6.542;2022-12-05T08:13:09;4.50;97.30
1405;DHT22;697;51.114;6.542;2022-12-05T08:15:36;4.50;97.20
1405;DHT22;697;51.114;6.542;2022-12-05T08:18:03;4.50;97.30
1405;DHT22;697;51.114;6.542;2022-12-05T08:20:29;4.50;97.30
1405;DHT22;697;51.114;6.542;2022-12-05T08:22:56;4.50;97.30
1405;DHT22;697;51.114;6.542;2022-12-05T08:25:23;4.50;97.30
1405;DHT22;697;51.114;6.542;2022-12-05T08:27:50;4.50;97.30
1405;DHT22;697;51.114;6.542;2022-12-05T08:30:18;4.50;97.30
1405;DHT22;697;51.114;6.542;2022-12-05T08:32:45;4.50;97.40
1405;DHT22;697;51.114;6.542;2022-12-05T08:35:12;4.50;97.40
1405;DHT22;697;51.114;6.542;2022-12-05T08:37:38;4.50;97.40
1405;DHT22;697;51.114;6.542;2022-12-05T08:40:06;4.60;97.40
1405;DHT22;697;51.114;6.542;2022-12-05T08:42:33;4.60;97.40
1405;DHT22;697;51.114;6.542;2022-12-05T08:44:59;4.60;97.40
1405;DHT22;697;51.114;6.542;2022-12-05T08:47:28;4.60;97.40
1405;DHT22;697;51.114;6.542;2022-12-05T08:49:54;4.60;97.70
1405;DHT22;697;51.114;6.542;2022-12-05T08:52:21;4.60;97.40
1405;DHT22;697;51.114;6.542;2022-12-05T08:54:48;4.60;97.30
1405;DHT22;697;51.114;6.542;2022-12-05T08:57:14;4.60;97.40
1405;DHT22;697;51.114;6.542;2022-12-05T08:59:41;4.60;97.40
1405;DHT22;697;51.114;6.542;2022-12-05T09:02:10;4.70;97.40
1405;DHT22;697;51.114;6.542;2022-12-05T09:04:38;4.70;97.40
1405;DHT22;697;51.114;6.542;2022-12-05T09:07:05;4.70;97.30
1405;DHT22;697;51.114;6.542;2022-12-05T09:09:32;4.60;97.30
1405;DHT22;697;51.114;6.542;2022-12-05T09:12:01;4.70;97.30
1405;DHT22;697;51.114;6.542;2022-12-05T09:14:28;4.70;97.30
1405;DHT22;697;51.114;6.542;2022-12-05T09:16:57;4.70;97.30
1405;DHT22;697;51.114;6.542;2022-12-05T09:19:25;4.70;97.30
1405;DHT22;697;51.114;6.542;2022-12-05T09:21:55;4.70;97.30
1405;DHT22;697;51.114;6.542;2022-12-05T09:24:23;4.70;97.30
1405;DHT22;697;51.114;6.542;2022-12-05T09:26:50;4.70;97.30
1405;DHT22;697;51.114;6.542;2022-12-05T09:29:17;4.70;97.30
1405;DHT22;697;51.114;6.542;2022-12-05T09:31:45;4.80;97.30
1405;DHT22;697;51.114;6.542;2022-12-05T09:34:12;4.80;97.30
1405;DHT22;697;51.114;6.542;2022-12-05T09:36:39;4.80;97.30
1405;DHT22;697;51.114;6.542;2022-12-05T09:39:09;4.80;97.30
1405;DHT22;697;51.114;6.542;2022-12-05T09:41:58;4.80;97.20
1405;DHT22;697;51.114;6.542;2022-12-05T09:47:47;4.80;97.20
1405;DHT22;697;51.114;6.542;2022-12-05T09:50:18;4.80;97.10
1405;DHT22;697;51.114;6.542;2022-12-05T09:53:00;4.80;97.20
1405;DHT22;697;51.114;6.542;2022-12-05T09:55:39;4.80;97.20
1405;DHT22;697;51.114;6.542;2022-12-05T10:01:01;4.80;97.20
1405;DHT22;697;51.114;6.542;2022-12-05T10:03:35;4.80;97.20
1405;DHT22;697;51.114;6.542;2022-12-05T10:06:12;4.80;97.20
1405;DHT22;697;51.114;6.542;2022-12-05T10:09:00;4.80;97.60
1405;DHT22;697;51.114;6.542;2022-12-05T10:11:38;4.80;97.20
1405;DHT22;697;51.114;6.542;2022-12-05T10:14:12;4.80;97.20
1405;DHT22;697;51.114;6.542;2022-12-05T10:16:48;4.80;97.20
1405;DHT22;697;51.114;6.542;2022-12-05T10:19:20;4.80;97.20
1405;DHT22;697;51.114;6.542;2022-12-05T10:21:50;4.80;97.20
1405;DHT22;697;51.114;6.542;2022-12-05T10:24:25;4.80;97.30
1405;DHT22;697;51.114;6.542;2022-12-05T10:26:58;4.90;97.40
1405;DHT22;697;51.114;6.542;2022-12-05T10:29:28;4.80;97.40
1405;DHT22;697;51.114;6.542;2022-12-05T10:32:02;4.90;97.50
1405;DHT22;697;51.114;6.542;2022-12-05T10:34:33;4.90;97.50
1405;DHT22;697;51.114;6.542;2022-12-05T10:37:08;4.90;97.50
1405;DHT22;697;51.114;6.542;2022-12-05T10:39:36;4.90;97.50
1405;DHT22;697;51.114;6.542;2022-12-05T10:42:10;5.00;97.60
1405;DHT22;697;51.114;6.542;2022-12-05T10:44:38;5.00;97.60
1405;DHT22;697;51.114;6.542;2022-12-05T10:47:05;5.00;97.60
1405;DHT22;697;51.114;6.542;2022-12-05T10:49:33;5.10;97.60
1405;DHT22;697;51.114;6.542;2022-12-05T10:52:00;5.20;97.60
1405;DHT22;697;51.114;6.542;2022-12-05T10:54:29;5.10;97.60
1405;DHT22;697;51.114;6.542;2022-12-05T10:56:57;5.20;97.50
1405;DHT22;697;51.114;6.542;2022-12-05T10:59:44;5.20;97.40
1405;DHT22;697;51.114;6.542;2022-12-05T11:02:20;5.20;97.50
1405;DHT22;697;51.114;6.542;2022-12-05T11:04:47;5.20;97.50
1405;DHT22;697;51.114;6.542;2022-12-05T11:07:24;5.20;97.50
1405;DHT22;697;51.114;6.542;2022-12-05T11:09:52;5.10;97.50
1405;DHT22;697;51.114;6.542;2022-12-05T11:12:21;5.10;97.50
1405;DHT22;697;51.114;6.542;2022-12-05T11:14:57;5.10;97.50
1405;DHT22;697;51.114;6.542;2022-12-05T11:17:26;5.00;97.50
1405;DHT22;697;51.114;6.542;2022-12-05T11:19:55;5.00;97.60
1405;DHT22;697;51.114;6.542;2022-12-05T11:22:30;5.00;97.70
1405;DHT22;697;51.114;6.542;2022-12-05T11:24:57;5.00;97.80
1405;DHT22;697;51.114;6.542;2022-12-05T11:27:27;5.00;97.90
1405;DHT22;697;51.114;6.542;2022-12-05T11:29:59;5.00;98.00
1405;DHT22;697;51.114;6.542;2022-12-05T11:32:27;5.00;98.00
1405;DHT22;697;51.114;6.542;2022-12-05T11:35:00;5.00;98.00
1405;DHT22;697;51.114;6.542;2022-12-05T11:37:34;5.00;98.00
1405;DHT22;697;51.114;6.542;2022-12-05T11:40:02;5.00;98.10
1405;DHT22;697;51.114;6.542;2022-12-05T11:42:45;5.00;98.00
1405;DHT22;697;51.114;6.542;2022-12-05T11:45:31;4.90;98.10
1405;DHT22;697;51.114;6.542;2022-12-05T11:48:16;4.90;98.20
1405;DHT22;697;51.114;6.542;2022-12-05T11:50:56;5.00;98.30
1405;DHT22;697;51.114;6.542;2022-12-05T11:53:44;5.00;98.40
1405;DHT22;697;51.114;6.542;2022-12-05T11:56:25;5.00;98.50
1405;DHT22;697;51.114;6.542;2022-12-05T11:59:03;5.10;98.70
1405;DHT22;697;51.114;6.542;2022-12-05T12:01:43;5.10;98.70
1405;DHT22;697;51.114;6.542;2022-12-05T12:04:48;5.10;98.70
1405;DHT22;697;51.114;6.542;2022-12-05T12:07:32;5.20;98.70
1405;DHT22;697;51.114;6.542;2022-12-05T12:10:11;5.20;98.60
1405;DHT22;697;51.114;6.542;2022-12-05T12:12:50;5.20;98.60
1405;DHT22;697;51.114;6.542;2022-12-05T12:15:48;5.20;98.50
1405;DHT22;697;51.114;6.542;2022-12-05T12:18:27;5.20;98.40
1405;DHT22;697;51.114;6.542;2022-12-05T12:21:15;5.20;98.40
1405;DHT22;697;51.114;6.542;2022-12-05T12:23:57;5.30;98.50
1405;DHT22;697;51.114;6.542;2022-12-05T12:26:35;5.30;98.30
1405;DHT22;697;51.114;6.542;2022-12-05T12:29:12;5.20;98.20
1405;DHT22;697;51.114;6.542;2022-12-05T12:31:59;5.20;98.10
1405;DHT22;697;51.114;6.542;2022-12-05T12:34:49;5.20;98.10
1405;DHT22;697;51.114;6.542;2022-12-05T12:37:26;5.20;98.20
1405;DHT22;697;51.114;6.542;2022-12-05T12:40:02;5.20;98.30
1405;DHT22;697;51.114;6.542;2022-12-05T12:42:39;5.20;98.30
1405;DHT22;697;51.114;6.542;2022-12-05T12:45:19;5.20;98.30
1405;DHT22;697;51.114;6.542;2022-12-05T12:48:08;5.20;98.30
1405;DHT22;697;51.114;6.542;2022-12-05T12:50:42;5.20;98.30
1405;DHT22;697;51.114;6.542;2022-12-05T12:53:36;5.10;98.20
1405;DHT22;697;51.114;6.542;2022-12-05T12:56:16;5.10;98.20
1405;DHT22;697;51.114;6.542;2022-12-05T12:58:50;5.10;98.20
1405;DHT22;697;51.114;6.542;2022-12-05T13:01:28;5.10;98.30
1405;DHT22;697;51.114;6.542;2022-12-05T13:03:58;5.00;98.30
1405;DHT22;697;51.114;6.542;2022-12-05T13:06:33;5.00;98.30
1405;DHT22;697;51.114;6.542;2022-12-05T13:09:04;4.90;98.30
1405;DHT22;697;51.114;6.542;2022-12-05T13:11:37;4.90;98.40
1405;DHT22;697;51.114;6.542;2022-12-05T13:14:16;4.90;98.60
1405;DHT22;697;51.114;6.542;2022-12-05T13:16:48;4.80;98.60
1405;DHT22;697;51.114;6.542;2022-12-05T13:19:23;4.80;98.70
1405;DHT22;697;51.114;6.542;2022-12-05T13:21:54;4.80;98.90
1405;DHT22;697;51.114;6.542;2022-12-05T13:24:24;4.90;99.00
1405;DHT22;697;51.114;6.542;2022-12-05T13:26:52;4.90;99.00
1405;DHT22;697;51.114;6.542;2022-12-05T13:29:28;4.90;99.10
1405;DHT22;697;51.114;6.542;2022-12-05T13:31:55;4.90;99.10
1405;DHT22;697;51.114;6.542;2022-12-05T13:34:44;4.90;99.00
1405;DHT22;697;51.114;6.542;2022-12-05T13:37:24;5.00;99.00
1405;DHT22;697;51.114;6.542;2022-12-05T13:40:27;5.00;98.80
1405;DHT22;697;51.114;6.542;2022-12-05T13:43:16;5.00;98.70
1405;DHT22;697;51.114;6.542;2022-12-05T13:45:57;5.00;98.60
1405;DHT22;697;51.114;6.542;2022-12-05T13:48:27;5.00;98.50
1405;DHT22;697;51.114;6.542;2022-12-05T13:50:57;4.90;98.40
1405;DHT22;697;51.114;6.542;2022-12-05T13:53:37;4.90;98.40
1405;DHT22;697;51.114;6.542;2022-12-05T13:56:21;4.90;98.30
1405;DHT22;697;51.114;6.542;2022-12-05T13:58:51;4.90;98.20
1405;DHT22;697;51.114;6.542;2022-12-05T14:01:47;4.90;98.10
1405;DHT22;697;51.114;6.542;2022-12-05T14:04:43;4.90;97.90
1405;DHT22;697;51.114;6.542;2022-12-05T14:10:07;4.80;97.80
1405;DHT22;697;51.114;6.542;2022-12-05T14:12:53;4.70;97.80
1405;DHT22;697;51.114;6.542;2022-12-05T14:15:32;4.70;97.80
1405;DHT22;697;51.114;6.542;2022-12-05T14:18:08;4.70;97.80
1405;DHT22;697;51.114;6.542;2022-12-05T14:20:47;4.70;97.80
1405;DHT22;697;51.114;6.542;2022-12-05T14:23:34;4.70;97.80
1405;DHT22;697;51.114;6.542;2022-12-05T14:26:16;4.70;97.80
1405;DHT22;697;51.114;6.542;2022-12-05T14:29:00;4.60;97.60
1405;DHT22;697;51.114;6.542;2022-12-05T14:31:45;4.60;97.60
1405;DHT22;697;51.114;6.542;2022-12-05T14:34:20;4.60;97.70
1405;DHT22;697;51.114;6.542;2022-12-05T14:36:55;4.60;97.80
1405;DHT22;697;51.114;6.542;2022-12-05T14:39:31;4.60;97.80
1405;DHT22;697;51.114;6.542;2022-12-05T14:42:00;4.60;97.80
1405;DHT22;697;51.114;6.542;2022-12-05T14:44:29;4.60;97.80
1405;DHT22;697;51.114;6.542;2022-12-05T14:46:58;4.60;97.80
1405;DHT22;697;51.114;6.542;2022-12-05T14:49:53;4.60;97.90
1405;DHT22;697;51.114;6.542;2022-12-05T14:52:23;4.60;97.90
1405;DHT22;697;51.114;6.542;2022-12-05T14:54:51;4.60;97.80
1405;DHT22;697;51.114;6.542;2022-12-05T14:57:20;4.60;97.80
1405;DHT22;697;51.114;6.542;2022-12-05T14:59:50;4.50;97.80
1405;DHT22;697;51.114;6.542;2022-12-05T15:02:24;4.50;97.80
1405;DHT22;697;51.114;6.542;2022-12-05T15:05:16;4.50;97.90
1405;DHT22;697;51.114;6.542;2022-12-05T15:07:45;4.50;97.90
1405;DHT22;697;51.114;6.542;2022-12-05T15:10:17;4.40;97.90
1405;DHT22;697;51.114;6.542;2022-12-05T15:12:49;4.40;97.90
1405;DHT22;697;51.114;6.542;2022-12-05T15:15:26;4.40;97.90
1405;DHT22;697;51.114;6.542;2022-12-05T15:17:58;4.40;97.90
1405;DHT22;697;51.114;6.542;2022-12-05T15:20:33;4.40;97.90
1405;DHT22;697;51.114;6.542;2022-12-05T15:23:02;4.40;97.90
1405;DHT22;697;51.114;6.542;2022-12-05T15:25:30;4.40;97.90
1405;DHT22;697;51.114;6.542;2022-12-05T15:28:04;4.30;97.90
1405;DHT22;697;51.114;6.542;2022-12-05T15:30:34;4.30;97.90
1405;DHT22;697;51.114;6.542;2022-12-05T15:33:04;4.30;97.90
1405;DHT22;697;51.114;6.542;2022-12-05T15:35:33;4.30;98.00
1405;DHT22;697;51.114;6.542;2022-12-05T15:38:06;4.30;98.00
1405;DHT22;697;51.114;6.542;2022-12-05T15:40:38;4.30;98.00
1405;DHT22;697;51.114;6.542;2022-12-05T15:43:36;4.20;98.00
1405;DHT22;697;51.114;6.542;2022-12-05T15:46:07;4.20;98.10
1405;DHT22;697;51.114;6.542;2022-12-05T15:48:36;4.20;98.40
1405;DHT22;697;51.114;6.542;2022-12-05T15:51:03;4.20;98.10
1405;DHT22;697;51.114;6.542;2022-12-05T15:53:33;4.20;98.10
1405;DHT22;697;51.114;6.542;2022-12-05T15:56:04;4.10;98.20
1405;DHT22;697;51.114;6.542;2022-12-05T15:58:35;4.10;98.30
1405;DHT22;697;51.114;6.542;2022-12-05T16:01:09;4.10;98.30
1405;DHT22;697;51.114;6.542;2022-12-05T16:03:40;4.10;98.40
1405;DHT22;697;51.114;6.542;2022-12-05T16:06:14;4.10;98.40
1405;DHT22;697;51.114;6.542;2022-12-05T16:08:43;4.10;98.40
1405;DHT22;697;51.114;6.542;2022-12-05T16:11:13;4.10;98.50
1405;DHT22;697;51.114;6.542;2022-12-05T16:13:44;4.10;98.50
1405;DHT22;697;51.114;6.542;2022-12-05T16:16:15;4.10;98.50
1405;DHT22;697;51.114;6.542;2022-12-05T16:18:48;4.10;98.50
1405;DHT22;697;51.114;6.542;2022-12-05T16:21:30;4.10;98.60
1405;DHT22;697;51.114;6.542;2022-12-05T16:24:02;4.10;98.60
1405;DHT22;697;51.114;6.542;2022-12-05T16:26:29;4.10;98.60
1405;DHT22;697;51.114;6.542;2022-12-05T16:28:58;4.10;98.60
1405;DHT22;697;51.114;6.542;2022-12-05T16:31:26;4.10;98.70
1405;DHT22;697;51.114;6.542;2022-12-05T16:34:01;4.10;98.70
1405;DHT22;697;51.114;6.542;2022-12-05T16:36:28;4.10;98.70
1405;DHT22;697;51.114;6.542;2022-12-05T16:39:03;4.10;98.70
1405;DHT22;697;51.114;6.542;2022-12-05T16:41:34;4.10;98.60
1405;DHT22;697;51.114;6.542;2022-12-05T16:44:03;4.10;98.60
1405;DHT22;697;51.114;6.542;2022-12-05T16:46:45;4.10;98.60
1405;DHT22;697;51.114;6.542;2022-12-05T16:49:31;4.10;98.70
1405;DHT22;697;51.114;6.542;2022-12-05T16:52:00;4.00;98.60
1405;DHT22;697;51.114;6.542;2022-12-05T16:54:28;4.00;98.60
1405;DHT22;697;51.114;6.542;2022-12-05T16:56:55;4.00;98.60
1405;DHT22;697;51.114;6.542;2022-12-05T16:59:25;4.00;98.70
1405;DHT22;697;51.114;6.542;2022-12-05T17:01:56;4.00;98.70
1405;DHT22;697;51.114;6.542;2022-12-05T17:04:22;4.00;98.70
1405;DHT22;697;51.114;6.542;2022-12-05T17:06:49;4.00;98.70
1405;DHT22;697;51.114;6.542;2022-12-05T17:09:16;4.00;98.80
1405;DHT22;697;51.114;6.542;2022-12-05T17:11:43;4.00;98.80
1405;DHT22;697;51.114;6.542;2022-12-05T17:14:13;4.00;98.80
1405;DHT22;697;51.114;6.542;2022-12-05T17:16:41;4.00;98.80
1405;DHT22;697;51.114;6.542;2022-12-05T17:19:08;4.00;98.90